EHEHLEAL

Guest
Details From EHEH - Eindhoven
To LEAL - Alicante
Flight Number -
Tags Decoded
Created
Modified
Stats Distance 829 nm / 1,535 km
Max Altitude 0 ft / 0 m
Waypoints 2
Social Downloads 0
Likes 0
Share VATSIM

Download

Looking for another format? Having issues loading an existing format? Contact us
Advertisement - Login to hide

Notes

Decoded

Route

EHEH LEAL

ID Type Via Altitude Latitude Longitude Leg Dist Tot Dist Heading (true) Name
O EHEH APT - 0 ft / 0 m 51.43909˚ 5.36214˚ - 0 nm - -
O LEAL APT - 0 ft / 0 m 38.28452˚ -0.57500˚ 828 nm 828 nm 200° / 196° -

Altitude Profile

Advertisement - Login to hide

Weather


0- 5 10 15 20 25 30 35+ Temperature / ° C

Clouds and Precipitation
Forecast for 2018-05-22 06:00 UTC. Updated an hour ago

Ground ~20,000 ft ~40,000 ft Winds

EHEH

Details ICAO EHEH (EIN)
Name Eindhoven
Region Netherlands
Timezone Europe/Amsterdam (UTC+2.0)
Stats Elevation 74 ft / 23 m (AMSL)
Location 51.450133° 5.374513°
Runways 1
Magnetic Variation 1.432° E

METAR

EHEH 220642Z AUTO 03005KT 340V050 9999 OVC220 18/13 Q1012 BLU 03006KT CAVOK

Decode

TAF

TAF EHEH 220501Z 2206/2312 VRB03KT CAVOK TEMPO 2212/2312 4000 SHRA SCT050CB BKN060 PROB40 TEMPO 2212/2221 VRB10G25KT 2000 TSRAGR BKN040CB BKN050 BECMG 2206/2208 06010G20KT

Decode

Departure Runways

ID Width Length Bearing (true) Bearing (mag) Surface Threshold Offset Overrun Length
03 148 ft / 45 m 9,832 ft / 2,997 m 34.92° 33.49° Asphalt 821 ft / 250 m 0 ft / 0 m
21 148 ft / 45 m 9,832 ft / 2,997 m 214.94° 213.51° Asphalt 821 ft / 250 m 0 ft / 0 m

LEAL

Details ICAO LEAL (ALC)
Name Alicante
Region Spain
Timezone Europe/Madrid (UTC+2.0)
Stats Elevation 141 ft / 43 m (AMSL)
Location 38.282169° -0.558157°
Runways 1
Magnetic Variation 0.231° E

METAR

LEAL 220630Z VRB02KT CAVOK 19/12 Q1013 NOSIG

Decode

TAF

TAF LEAL 220500Z 2206/2306 VRB04KT 9999 FEW010 TX25/2212Z TN14/2206Z BECMG 2210/2212 18012KT BECMG 2218/2221 VRB04KT

Decode

Destination Runways

ID Width Length Bearing (true) Bearing (mag) Surface Threshold Offset Overrun Length
10 148 ft / 45 m 9,799 ft / 2,987 m 100.07° 99.84° Asphalt 0 ft / 0 m 164 ft / 50 m
28 148 ft / 45 m 9,799 ft / 2,987 m 280.09° 279.86° Asphalt 0 ft / 0 m 197 ft / 60 m

Approach Navaids

Runway Type Ident Frequency Range Bearing (true) Bearing (mag) Slope Elevation
10 Localiser IAT 110.30 MHz 18 nm / 33 km 100.09° 99.86° - 29 ft / 9 m (AMSL)
10 Glidescope IAT 110.30 MHz 10 nm / 19 km 100.09° 99.86° 3.00° 129 ft / 39 m (AMSL)
10 DME IAT 110.30 MHz 18 nm / 33 km - - - 129 ft / 39 m (AMSL)

Popular Alternatives